createdAt,value
2023-05-19T00:01:00.291Z,3.50
2023-05-19T00:03:27.119Z,3.00
2023-05-19T00:05:54.337Z,3.07
2023-05-19T00:08:23.311Z,2.87
2023-05-19T00:10:49.981Z,3.57
2023-05-19T00:13:16.674Z,3.17
2023-05-19T00:15:43.357Z,3.30
2023-05-19T00:18:09.930Z,3.43
2023-05-19T00:20:38.046Z,3.10
2023-05-19T00:23:04.564Z,3.20
2023-05-19T00:25:30.995Z,3.17
2023-05-19T00:27:59.201Z,3.07
2023-05-19T00:30:26.114Z,3.10
2023-05-19T00:32:52.720Z,3.20
2023-05-19T00:35:20.037Z,3.10
2023-05-19T00:37:46.710Z,3.13
2023-05-19T00:40:13.572Z,3.50
2023-05-19T00:42:41.247Z,3.70
2023-05-19T00:45:08.494Z,3.60
2023-05-19T00:47:35.208Z,3.50
2023-05-19T00:50:01.806Z,3.37
2023-05-19T00:52:28.394Z,3.97
2023-05-19T00:54:55.648Z,3.10
2023-05-19T00:57:22.356Z,3.93
2023-05-19T00:59:49.004Z,3.60
2023-05-19T01:02:15.794Z,3.20
2023-05-19T01:04:43.978Z,3.60
2023-05-19T01:07:12.451Z,3.30
2023-05-19T01:09:40.736Z,3.43
2023-05-19T01:12:08.669Z,2.83
2023-05-19T01:14:35.424Z,2.63
2023-05-19T01:17:08.824Z,3.07
2023-05-19T01:19:50.779Z,3.17
2023-05-19T01:22:55.185Z,3.53
2023-05-19T01:25:47.762Z,3.07
2023-05-19T01:28:41.951Z,3.43
2023-05-19T01:31:11.805Z,3.10
2023-05-19T01:33:41.123Z,3.07
2023-05-19T01:36:08.382Z,3.50
2023-05-19T01:38:38.478Z,3.63
2023-05-19T01:41:06.959Z,3.60
2023-05-19T01:43:35.943Z,3.60
2023-05-19T01:46:03.290Z,3.83
2023-05-19T01:48:30.655Z,3.80
2023-05-19T01:50:57.925Z,3.90
2023-05-19T01:53:24.975Z,4.10
2023-05-19T01:55:53.864Z,4.27
2023-05-19T01:58:20.628Z,4.00
2023-05-19T02:01:13.610Z,4.40
2023-05-19T02:04:08.800Z,4.07
2023-05-19T02:06:49.329Z,4.00
2023-05-19T02:09:23.066Z,4.00
2023-05-19T02:11:56.234Z,3.80
2023-05-19T02:14:50.061Z,4.30
2023-05-19T02:17:18.480Z,4.40
2023-05-19T02:19:46.371Z,4.30
2023-05-19T02:22:14.367Z,4.27
2023-05-19T02:24:41.401Z,4.27
2023-05-19T02:27:07.969Z,4.07
2023-05-19T02:29:34.441Z,4.30
2023-05-19T02:32:02.231Z,5.00
2023-05-19T02:34:28.783Z,4.43
2023-05-19T02:36:56.401Z,4.50
2023-05-19T02:39:22.903Z,4.57
2023-05-19T02:41:49.562Z,4.00
2023-05-19T02:44:16.142Z,4.80
2023-05-19T02:46:42.731Z,4.67
2023-05-19T02:49:09.252Z,3.80
2023-05-19T02:51:35.720Z,4.47
2023-05-19T02:54:02.317Z,4.03
2023-05-19T02:56:28.791Z,4.20
2023-05-19T02:58:55.269Z,3.63
2023-05-19T03:01:22.975Z,3.80
2023-05-19T03:03:49.709Z,3.80
2023-05-19T03:06:17.972Z,4.10
2023-05-19T03:08:45.004Z,4.17
2023-05-19T03:11:11.538Z,4.50
2023-05-19T03:13:38.060Z,4.33
2023-05-19T03:16:04.690Z,4.63
2023-05-19T03:18:31.691Z,4.60
2023-05-19T03:20:59.264Z,4.80
2023-05-19T03:23:26.615Z,4.50
2023-05-19T03:25:56.312Z,5.10
2023-05-19T03:28:23.380Z,6.50
2023-05-19T03:30:52.825Z,8.17
2023-05-19T03:33:23.944Z,7.00
2023-05-19T03:35:52.979Z,7.00
2023-05-19T03:38:19.860Z,7.33
2023-05-19T03:40:55.036Z,7.90
2023-05-19T03:43:21.484Z,8.17
2023-05-19T03:45:53.773Z,7.07
2023-05-19T03:48:43.209Z,7.63
2023-05-19T03:51:24.522Z,7.50
2023-05-19T03:53:54.960Z,7.10
2023-05-19T03:56:23.649Z,7.23
2023-05-19T03:58:50.206Z,7.60
2023-05-19T04:01:16.673Z,8.17
2023-05-19T04:03:43.186Z,7.43
2023-05-19T04:06:09.777Z,7.40
2023-05-19T04:08:36.220Z,7.83
2023-05-19T04:11:02.780Z,7.33
2023-05-19T04:13:32.984Z,7.27
2023-05-19T04:15:59.494Z,6.87
2023-05-19T04:18:28.823Z,6.90
2023-05-19T04:20:55.798Z,6.87
2023-05-19T04:23:22.411Z,6.43
2023-05-19T04:25:49.625Z,7.10
2023-05-19T04:28:16.231Z,7.00
2023-05-19T04:30:42.972Z,6.50
2023-05-19T04:33:09.558Z,6.07
2023-05-19T04:35:38.108Z,6.43
2023-05-19T04:38:04.691Z,5.23
2023-05-19T04:40:33.388Z,5.50
2023-05-19T04:43:01.958Z,4.87
2023-05-19T04:45:28.908Z,5.47
2023-05-19T04:47:59.216Z,5.23
2023-05-19T04:50:26.206Z,5.20
2023-05-19T04:52:52.799Z,5.13
2023-05-19T04:55:19.605Z,4.87
2023-05-19T04:57:47.623Z,4.80
2023-05-19T05:00:14.496Z,4.43
2023-05-19T05:02:52.500Z,3.87
2023-05-19T05:05:21.067Z,4.40
2023-05-19T05:07:47.735Z,4.30
2023-05-19T05:10:14.419Z,3.80
2023-05-19T05:12:41.350Z,4.13
2023-05-19T05:15:08.609Z,4.00
2023-05-19T05:17:37.677Z,3.87
2023-05-19T05:20:06.240Z,6.10
2023-05-19T05:22:33.436Z,7.23
2023-05-19T05:25:01.845Z,11.43
2023-05-19T05:27:28.790Z,8.83
2023-05-19T05:29:56.452Z,6.97
2023-05-19T05:32:26.126Z,6.30
2023-05-19T05:34:52.785Z,6.10
2023-05-19T05:37:20.136Z,6.07
2023-05-19T05:39:46.694Z,5.80
2023-05-19T05:42:13.621Z,5.37
2023-05-19T05:44:40.801Z,4.80
2023-05-19T05:47:08.026Z,4.53
2023-05-19T05:49:38.110Z,4.20
2023-05-19T05:52:06.909Z,4.10
2023-05-19T05:54:41.124Z,3.87
2023-05-19T05:57:08.935Z,3.47
2023-05-19T05:59:35.454Z,3.83
2023-05-19T06:02:02.367Z,3.77
2023-05-19T06:04:28.974Z,3.73
2023-05-19T06:07:00.812Z,4.17
2023-05-19T06:09:30.706Z,3.80
2023-05-19T06:11:58.268Z,3.27
2023-05-19T06:14:26.320Z,2.93
2023-05-19T06:17:12.875Z,2.70
2023-05-19T06:19:39.549Z,2.80
2023-05-19T06:22:06.985Z,3.08
2023-05-19T06:24:33.845Z,2.10
2023-05-19T06:27:00.424Z,2.60
2023-05-19T06:29:26.955Z,2.80
2023-05-19T06:31:56.334Z,2.28
2023-05-19T06:34:22.961Z,4.05
2023-05-19T06:36:49.531Z,3.60
2023-05-19T06:39:18.575Z,3.47
2023-05-19T06:41:45.638Z,2.87
2023-05-19T06:44:25.068Z,3.40
2023-05-19T06:46:51.596Z,2.28
2023-05-19T06:49:18.979Z,2.58
2023-05-19T06:51:47.818Z,1.90
2023-05-19T06:54:15.988Z,2.20
2023-05-19T06:56:42.580Z,2.20
2023-05-19T06:59:10.282Z,1.98
2023-05-19T07:01:37.835Z,3.05
2023-05-19T07:04:04.675Z,1.90
2023-05-19T07:06:31.360Z,1.55
2023-05-19T07:08:57.800Z,1.73
2023-05-19T07:11:26.217Z,1.85
2023-05-19T07:13:53.200Z,2.33
2023-05-19T07:16:25.489Z,1.98
2023-05-19T07:18:52.155Z,1.95
2023-05-19T07:21:18.684Z,2.33
2023-05-19T07:23:46.436Z,1.75
2023-05-19T07:26:12.966Z,2.42
2023-05-19T07:28:41.455Z,2.25
2023-05-19T07:31:08.242Z,1.85
2023-05-19T07:33:34.834Z,2.03
2023-05-19T07:36:01.300Z,2.10
2023-05-19T07:38:28.762Z,2.35
2023-05-19T07:40:55.388Z,2.10
2023-05-19T07:43:21.890Z,2.17
2023-05-19T07:45:48.464Z,1.98
2023-05-19T07:48:15.193Z,1.92
2023-05-19T07:50:41.653Z,2.05
2023-05-19T07:53:08.105Z,1.95
2023-05-19T07:55:34.690Z,2.42
2023-05-19T07:58:01.115Z,1.90
2023-05-19T08:00:27.645Z,1.95
2023-05-19T08:02:54.370Z,1.75
2023-05-19T08:05:20.961Z,2.13
2023-05-19T08:07:47.504Z,1.88
2023-05-19T08:10:14.041Z,1.70
2023-05-19T08:12:40.569Z,2.20
2023-05-19T08:15:07.937Z,2.05
2023-05-19T08:17:34.477Z,2.13
2023-05-19T08:20:00.902Z,1.75
2023-05-19T08:22:27.319Z,2.40
2023-05-19T08:24:53.962Z,2.00
2023-05-19T08:27:20.750Z,2.17
2023-05-19T08:29:47.231Z,2.40
2023-05-19T08:32:13.785Z,2.00
2023-05-19T08:34:41.162Z,2.40
2023-05-19T08:37:07.688Z,2.05
2023-05-19T08:39:34.875Z,2.53
2023-05-19T08:42:02.308Z,2.20
2023-05-19T08:44:30.713Z,2.30
2023-05-19T08:47:00.934Z,3.03
2023-05-19T08:49:28.446Z,2.47
2023-05-19T08:52:06.291Z,2.25
2023-05-19T08:54:50.786Z,2.47
2023-05-19T08:57:17.965Z,2.80
2023-05-19T08:59:44.814Z,3.10
2023-05-19T09:02:14.251Z,2.40
2023-05-19T09:04:41.901Z,2.22
2023-05-19T09:07:09.334Z,2.40
2023-05-19T09:09:35.916Z,2.28
2023-05-19T09:12:02.463Z,2.15
2023-05-19T09:14:29.474Z,2.50
2023-05-19T09:16:56.063Z,2.63
2023-05-19T09:19:22.778Z,2.97
2023-05-19T09:22:00.231Z,3.03
2023-05-19T09:24:27.202Z,2.55
2023-05-19T09:27:00.211Z,3.13
2023-05-19T09:29:27.055Z,2.83
2023-05-19T09:31:56.036Z,2.83
2023-05-19T09:34:24.704Z,2.50
2023-05-19T09:36:54.416Z,2.20
2023-05-19T09:39:23.098Z,2.10
2023-05-19T09:41:54.297Z,2.00
2023-05-19T09:44:21.065Z,2.35
2023-05-19T09:46:51.390Z,2.08
2023-05-19T09:49:32.782Z,2.08
2023-05-19T09:52:02.168Z,1.98
2023-05-19T09:54:32.115Z,2.25
2023-05-19T09:57:03.642Z,1.95
2023-05-19T09:59:33.466Z,2.20
2023-05-19T10:02:02.165Z,1.92
2023-05-19T10:04:30.052Z,2.08
2023-05-19T10:06:59.483Z,1.77
2023-05-19T10:09:28.430Z,2.05
2023-05-19T10:11:56.508Z,1.60
2023-05-19T10:14:24.889Z,1.70
2023-05-19T10:16:52.951Z,2.15
2023-05-19T10:19:24.946Z,1.73
2023-05-19T10:21:51.833Z,1.50
2023-05-19T10:24:19.330Z,1.77
2023-05-19T10:26:51.194Z,2.10
2023-05-19T10:29:23.172Z,1.83
2023-05-19T10:31:52.809Z,1.55
2023-05-19T10:34:19.339Z,2.30
2023-05-19T10:36:55.955Z,1.70
2023-05-19T10:39:25.839Z,1.65
2023-05-19T10:42:13.887Z,1.90
2023-05-19T10:45:16.166Z,1.98
2023-05-19T10:47:43.516Z,1.90
2023-05-19T10:50:10.571Z,2.17
2023-05-19T10:52:38.725Z,1.90
2023-05-19T10:55:10.032Z,2.00
2023-05-19T10:57:36.723Z,2.17
2023-05-19T11:00:24.729Z,1.92
2023-05-19T11:02:56.165Z,1.55
2023-05-19T11:05:29.529Z,1.60
2023-05-19T11:08:02.157Z,2.15
2023-05-19T11:10:28.801Z,2.20
2023-05-19T11:15:27.416Z,2.00
2023-05-19T11:17:54.362Z,1.90
2023-05-19T11:20:29.470Z,2.13
2023-05-19T11:23:09.100Z,1.95
2023-05-19T11:25:50.769Z,2.30
2023-05-19T11:28:19.910Z,2.38
2023-05-19T11:30:50.602Z,2.15
2023-05-19T11:33:20.782Z,2.17
2023-05-19T11:35:50.311Z,1.90
2023-05-19T11:38:18.455Z,2.40
2023-05-19T11:40:45.070Z,2.78
2023-05-19T11:43:12.520Z,2.30
2023-05-19T11:45:39.455Z,1.80
2023-05-19T11:48:06.830Z,2.35
2023-05-19T11:50:33.536Z,2.00
2023-05-19T11:53:00.920Z,1.95
2023-05-19T11:55:27.997Z,2.13
2023-05-19T11:58:05.161Z,1.90
2023-05-19T12:00:39.968Z,1.88
2023-05-19T12:03:08.165Z,2.15
2023-05-19T12:05:41.853Z,1.85
2023-05-19T12:08:10.073Z,2.03
2023-05-19T12:10:37.171Z,1.88
2023-05-19T12:13:06.195Z,1.92
2023-05-19T12:15:33.590Z,1.90
2023-05-19T12:18:01.687Z,2.00
2023-05-19T12:20:32.362Z,1.90
2023-05-19T12:23:00.549Z,2.38
2023-05-19T12:25:27.811Z,2.28
2023-05-19T12:27:59.152Z,2.35
2023-05-19T12:30:30.317Z,1.98
2023-05-19T12:33:00.030Z,1.85
2023-05-19T12:35:37.682Z,2.20
2023-05-19T12:38:05.194Z,1.95
2023-05-19T12:40:34.043Z,2.50
2023-05-19T12:43:00.949Z,1.92
2023-05-19T12:45:28.566Z,2.30
2023-05-19T12:47:55.890Z,2.30
2023-05-19T12:50:30.850Z,2.03
2023-05-19T12:52:59.507Z,2.08
2023-05-19T12:55:26.114Z,1.90
2023-05-19T12:57:56.638Z,1.92
2023-05-19T13:00:32.459Z,2.22
2023-05-19T13:03:04.993Z,2.00
2023-05-19T13:05:36.744Z,2.25
2023-05-19T13:08:11.171Z,2.17
2023-05-19T13:10:39.592Z,1.80
2023-05-19T13:13:07.491Z,2.38
2023-05-19T13:15:36.334Z,2.03
2023-05-19T13:18:08.760Z,2.13
2023-05-19T13:20:36.826Z,2.20
2023-05-19T13:23:03.668Z,1.55
2023-05-19T13:25:30.778Z,2.00
2023-05-19T13:27:59.345Z,2.30
2023-05-19T13:30:26.036Z,2.08
2023-05-19T13:32:52.709Z,1.83
2023-05-19T13:35:20.396Z,1.80
2023-05-19T13:37:46.875Z,2.13
2023-05-19T13:40:13.582Z,2.17
2023-05-19T13:42:40.769Z,2.20
2023-05-19T13:45:07.927Z,1.77
2023-05-19T13:47:34.477Z,1.98
2023-05-19T13:50:02.247Z,1.88
2023-05-19T13:52:30.494Z,2.20
2023-05-19T13:54:57.434Z,1.90
2023-05-19T13:57:24.262Z,1.70
2023-05-19T14:00:02.026Z,2.10
2023-05-19T14:02:38.617Z,2.00
2023-05-19T14:05:07.025Z,1.92
2023-05-19T14:07:34.977Z,1.60
2023-05-19T14:10:03.872Z,1.50
2023-05-19T14:12:41.392Z,1.80
2023-05-19T14:15:14.113Z,1.95
2023-05-19T14:17:40.585Z,1.65
2023-05-19T14:20:07.658Z,1.70
2023-05-19T14:22:34.120Z,1.52
2023-05-19T14:25:00.827Z,1.83
2023-05-19T14:27:27.283Z,1.50
2023-05-19T14:29:53.987Z,1.50
2023-05-19T14:32:20.804Z,1.67
2023-05-19T14:34:47.474Z,1.80
2023-05-19T14:37:14.016Z,1.67
2023-05-19T14:39:40.575Z,1.92
2023-05-19T14:42:07.008Z,1.80
2023-05-19T14:44:33.497Z,1.60
2023-05-19T14:47:01.858Z,2.30
2023-05-19T14:49:28.349Z,1.85
2023-05-19T14:51:55.116Z,2.00
2023-05-19T14:54:21.892Z,1.65
2023-05-19T14:56:48.334Z,1.90
2023-05-19T14:59:14.822Z,2.10
2023-05-19T15:01:41.398Z,1.73
2023-05-19T15:04:07.897Z,1.83
2023-05-19T15:06:34.412Z,1.75
2023-05-19T15:09:00.944Z,2.17
2023-05-19T15:11:27.436Z,1.90
2023-05-19T15:13:53.992Z,2.13
2023-05-19T15:16:20.451Z,2.05
2023-05-19T15:18:46.921Z,1.80
2023-05-19T15:21:13.447Z,1.73
2023-05-19T15:23:39.905Z,1.60
2023-05-19T15:26:06.755Z,1.70
2023-05-19T15:28:33.593Z,1.58
2023-05-19T15:31:00.198Z,1.58
2023-05-19T15:33:26.721Z,1.60
2023-05-19T15:35:53.364Z,1.65
2023-05-19T15:38:20.485Z,1.50
2023-05-19T15:40:47.188Z,1.60
2023-05-19T15:43:14.055Z,1.60
2023-05-19T15:45:40.972Z,1.60
2023-05-19T15:48:07.573Z,1.98
2023-05-19T15:50:34.490Z,1.80
2023-05-19T15:53:01.235Z,1.42
2023-05-19T15:55:27.769Z,1.80
2023-05-19T15:57:54.265Z,1.60
2023-05-19T16:00:20.949Z,1.73
2023-05-19T16:02:47.531Z,1.52
2023-05-19T16:05:14.123Z,1.65
2023-05-19T16:07:41.990Z,1.73
2023-05-19T16:10:08.868Z,1.45
2023-05-19T16:12:36.576Z,1.70
2023-05-19T16:15:03.435Z,1.85
2023-05-19T16:17:29.998Z,1.58
2023-05-19T16:19:56.605Z,1.77
2023-05-19T16:22:24.689Z,1.40
2023-05-19T16:24:52.117Z,1.60
2023-05-19T16:27:18.799Z,1.98
2023-05-19T16:29:45.565Z,1.60
2023-05-19T16:32:12.646Z,1.73
2023-05-19T16:34:39.566Z,1.60
2023-05-19T16:37:06.080Z,1.52
2023-05-19T16:39:32.741Z,1.63
2023-05-19T16:41:59.237Z,1.40
2023-05-19T16:44:26.003Z,1.90
2023-05-19T16:46:52.472Z,1.60
2023-05-19T16:49:18.985Z,1.65
2023-05-19T16:51:46.832Z,1.67
2023-05-19T16:54:14.654Z,1.45
2023-05-19T16:56:41.268Z,1.40
2023-05-19T16:59:09.318Z,1.67
2023-05-19T17:01:35.893Z,1.70
2023-05-19T17:04:02.657Z,1.80
2023-05-19T17:06:29.153Z,1.92
2023-05-19T17:08:55.654Z,1.58
2023-05-19T17:11:22.207Z,2.17
2023-05-19T17:13:48.642Z,1.83
2023-05-19T17:16:15.424Z,1.98
2023-05-19T17:18:41.988Z,1.63
2023-05-19T17:21:08.553Z,1.80
2023-05-19T17:23:35.038Z,1.73
2023-05-19T17:26:01.852Z,1.95
2023-05-19T17:28:28.450Z,1.80
2023-05-19T17:30:54.935Z,1.80
2023-05-19T17:33:21.472Z,1.67
2023-05-19T17:35:48.002Z,2.08
2023-05-19T17:38:14.564Z,1.63
2023-05-19T17:40:42.140Z,1.70
2023-05-19T17:43:08.781Z,1.75
2023-05-19T17:45:35.588Z,1.90
2023-05-19T17:48:02.273Z,1.88
2023-05-19T17:50:28.804Z,1.60
2023-05-19T17:52:56.178Z,1.73
2023-05-19T17:55:24.728Z,1.98
2023-05-19T17:57:51.349Z,1.90
2023-05-19T18:00:18.612Z,1.90
2023-05-19T18:02:45.475Z,2.00
2023-05-19T18:05:12.692Z,1.83
2023-05-19T18:07:40.172Z,1.48
2023-05-19T18:10:08.218Z,1.90
2023-05-19T18:12:34.716Z,1.80
2023-05-19T18:15:01.332Z,2.05
2023-05-19T18:17:27.814Z,1.90
2023-05-19T18:19:54.585Z,1.67
2023-05-19T18:22:21.234Z,1.90
2023-05-19T18:24:47.829Z,2.38
2023-05-19T18:27:14.282Z,2.30
2023-05-19T18:29:40.843Z,2.30
2023-05-19T18:32:07.794Z,2.78
2023-05-19T18:34:34.365Z,2.78
2023-05-19T18:37:00.902Z,2.47
2023-05-19T18:39:29.240Z,2.85
2023-05-19T18:41:55.890Z,3.15
2023-05-19T18:44:22.469Z,3.05
2023-05-19T18:46:48.975Z,3.13
2023-05-19T18:49:15.695Z,3.03
2023-05-19T18:51:42.494Z,2.22
2023-05-19T18:54:09.051Z,3.00
2023-05-19T18:56:35.683Z,4.13
2023-05-19T18:59:02.324Z,4.93
2023-05-19T19:01:28.997Z,5.65
2023-05-19T19:03:55.730Z,5.38
2023-05-19T19:06:23.274Z,4.70
2023-05-19T19:08:50.143Z,3.47
2023-05-19T19:11:16.654Z,3.50
2023-05-19T19:13:43.692Z,2.90
2023-05-19T19:16:10.694Z,2.70
2023-05-19T19:18:37.243Z,2.58
2023-05-19T19:21:05.800Z,2.22
2023-05-19T19:23:32.678Z,2.63
2023-05-19T19:25:59.142Z,2.78
2023-05-19T19:28:25.792Z,3.08
2023-05-19T19:30:52.265Z,3.38
2023-05-19T19:33:18.873Z,3.10
2023-05-19T19:35:46.959Z,3.10
2023-05-19T19:38:13.687Z,2.97
2023-05-19T19:40:40.181Z,3.13
2023-05-19T19:43:06.685Z,2.92
2023-05-19T19:45:34.718Z,2.70
2023-05-19T19:48:01.671Z,2.70
2023-05-19T19:50:28.368Z,2.53
2023-05-19T19:52:54.837Z,2.60
2023-05-19T19:55:21.574Z,2.80
2023-05-19T19:57:49.453Z,3.17
2023-05-19T20:00:16.549Z,2.92
2023-05-19T20:02:55.818Z,3.10
2023-05-19T20:05:29.801Z,2.72
2023-05-19T20:07:56.282Z,2.35
2023-05-19T20:10:22.741Z,2.25
2023-05-19T20:12:50.557Z,2.80
2023-05-19T20:15:17.270Z,2.20
2023-05-19T20:17:43.807Z,2.53
2023-05-19T20:20:12.227Z,2.20
2023-05-19T20:22:39.197Z,2.03
2023-05-19T20:25:06.500Z,2.08
2023-05-19T20:27:33.176Z,1.95
2023-05-19T20:29:59.723Z,2.05
2023-05-19T20:32:26.197Z,2.47
2023-05-19T20:34:52.737Z,2.05
2023-05-19T20:37:19.178Z,2.08
2023-05-19T20:39:45.622Z,1.70
2023-05-19T20:42:12.247Z,2.05
2023-05-19T20:44:38.752Z,2.53
2023-05-19T20:47:07.896Z,2.30
2023-05-19T20:49:35.146Z,1.90
2023-05-19T20:52:01.672Z,1.88
2023-05-19T20:54:28.181Z,1.95
2023-05-19T20:56:54.812Z,1.80
2023-05-19T20:59:21.320Z,2.17
2023-05-19T21:01:48.033Z,2.10
2023-05-19T21:04:14.678Z,2.05
2023-05-19T21:06:41.283Z,1.70
2023-05-19T21:09:07.893Z,1.75
2023-05-19T21:11:34.621Z,1.70
2023-05-19T21:14:04.122Z,1.52
2023-05-19T21:16:31.241Z,1.67
2023-05-19T21:18:58.021Z,1.88
2023-05-19T21:21:24.569Z,1.65
2023-05-19T21:23:51.106Z,1.70
2023-05-19T21:26:17.893Z,1.80
2023-05-19T21:28:44.340Z,1.77
2023-05-19T21:31:10.961Z,1.80
2023-05-19T21:33:37.557Z,1.58
2023-05-19T21:36:04.229Z,1.70
2023-05-19T21:38:30.937Z,1.67
2023-05-19T21:40:57.588Z,1.60
2023-05-19T21:43:24.073Z,1.63
2023-05-19T21:45:50.759Z,1.70
2023-05-19T21:48:17.649Z,1.50
2023-05-19T21:50:44.293Z,1.85
2023-05-19T21:53:10.837Z,1.70
2023-05-19T21:55:37.388Z,1.60
2023-05-19T21:58:03.829Z,1.60
2023-05-19T22:00:30.321Z,1.65
2023-05-19T22:02:57.007Z,1.60
2023-05-19T22:05:23.527Z,1.80
2023-05-19T22:07:50.103Z,1.77
2023-05-19T22:10:16.550Z,1.50
2023-05-19T22:12:43.012Z,1.80
2023-05-19T22:15:10.318Z,1.65
2023-05-19T22:17:37.032Z,1.67
2023-05-19T22:20:03.952Z,1.70
2023-05-19T22:22:30.496Z,1.60
2023-05-19T22:24:57.240Z,1.70
2023-05-19T22:27:23.720Z,1.58
2023-05-19T22:29:50.490Z,1.73
2023-05-19T22:32:18.378Z,2.30
2023-05-19T22:34:45.217Z,1.83
2023-05-19T22:37:11.967Z,2.08
2023-05-19T22:39:38.994Z,1.98
2023-05-19T22:42:05.862Z,1.70
2023-05-19T22:44:32.432Z,2.00
2023-05-19T22:46:58.954Z,1.77
2023-05-19T22:49:27.267Z,2.05
2023-05-19T22:51:53.759Z,2.20
2023-05-19T22:54:20.315Z,1.97
2023-05-19T22:56:48.681Z,1.97
2023-05-19T22:59:17.590Z,1.90
2023-05-19T23:01:46.549Z,2.00
2023-05-19T23:04:13.838Z,1.60
2023-05-19T23:06:41.297Z,1.67
2023-05-19T23:09:08.043Z,1.90
2023-05-19T23:11:35.752Z,2.20
2023-05-19T23:14:02.336Z,1.90
2023-05-19T23:16:28.826Z,2.07
2023-05-19T23:18:55.426Z,1.83
2023-05-19T23:21:22.032Z,1.83
2023-05-19T23:23:49.300Z,2.03
2023-05-19T23:26:16.072Z,2.10
2023-05-19T23:28:42.941Z,1.60
2023-05-19T23:31:09.531Z,2.10
2023-05-19T23:33:36.197Z,1.70
2023-05-19T23:36:10.284Z,1.95
2023-05-19T23:38:37.425Z,1.95
2023-05-19T23:41:05.038Z,2.00
2023-05-19T23:43:34.457Z,1.88
2023-05-19T23:46:01.142Z,2.13
2023-05-19T23:48:31.252Z,2.03
2023-05-19T23:50:58.217Z,2.10
2023-05-19T23:53:24.964Z,2.00
2023-05-19T23:55:51.623Z,2.10
2023-05-19T23:58:18.270Z,2.10
